Time;durP1;ratioP1;P1;durP2;ratioP2;P2;SDS_P1;SDS_P2;PMS_P1;PMS_P2;Temp;Humidity;BMP_temperature;BMP_pressure;BME280_temperature;BME280_humidity;BME280_pressure;Samples;Min_cycle;Max_cycle;Signal;HPM_P1;HPM_P2
2021/11/21 00:00:53;;;;;;;;;;;;;;;;;;2073339;28;20327;-45
2021/11/21 00:01:54;;;;;;;;;;;;;;;;;;2080453;28;19975;-45
2021/11/21 00:02:55;;;;;;;;;;;;;;;;;;2078739;28;19925;-45
2021/11/21 00:03:56;;;;;;;;;;;;;;;;;;2069710;28;19929;-46
2021/11/21 00:04:57;;;;;;;;;;;;;;;;;;2081106;28;20126;-46
2021/11/21 00:05:58;;;;;;;;;;;;;;;;;;2082471;28;20298;-47
2021/11/21 00:06:58;;;;;;;;;;;;;;;;;;2076935;28;20025;-45
2021/11/21 00:07:59;;;;;;;;;;;;;;;;;;2074686;28;19925;-45
2021/11/21 00:09:00;;;;;;;;;;;;;;;;;;2074389;28;20016;-46
2021/11/21 00:10:01;;;;;;;;;;;;;;;;;;2075106;28;20383;-46
2021/11/21 00:11:02;;;;;;;;;;;;;;;;;;2067062;28;20066;-47
2021/11/21 00:12:03;;;;;;;;;;;;;;;;;;2066305;28;20133;-46
2021/11/21 00:13:04;;;;;;;;;;;;;;;;;;2070745;28;19936;-46
2021/11/21 00:14:07;;;;;;;;;;;;;;;;;;2082336;28;20294;-46
2021/11/21 00:15:07;;;;;;;;;;;;;;;;;;2082512;28;20005;-42
2021/11/21 00:16:08;;;;;;;;;;;;;;;;;;2075488;28;20437;-42
2021/11/21 00:17:10;;;;;;;;;;;;;;;;;;2082372;28;20305;-42
2021/11/21 00:18:12;;;;;;;;;;;;;;;;;;2082583;28;19933;-42
2021/11/21 00:19:13;;;;;;;;;;;;;;;;;;2075298;28;19933;-43
2021/11/21 00:20:16;;;;;;;;;;;;;;;;;;2082437;28;20016;-43
2021/11/21 00:21:17;;;;;;;;;;;;;;;;;;2081313;28;20004;-42
2021/11/21 00:22:18;;;;;;;;;;;;;;;;;;2073504;28;20075;-42
2021/11/21 00:23:21;;;;;;;;;;;;;;;;;;2074393;28;19982;-42
2021/11/21 00:24:22;;;;;;;;;;;;;;;;;;2073243;28;19996;-42
2021/11/21 00:25:23;;;;;;;;;;;;;;;;;;2080328;28;20452;-42
2021/11/21 00:26:23;;;;;;;;;;;;;;;;;;2082268;28;20030;-42
2021/11/21 00:27:24;;;;;;;;;;;;;;;;;;2077933;28;19930;-42
2021/11/21 00:28:25;;;;;;;;;;;;;;;;;;2075212;28;20454;-44
2021/11/21 00:29:26;;;;;;;;;;;;;;;;;;2074198;28;19934;-42
2021/11/21 00:30:27;;;;;;;;;;;;;;;;;;2073093;28;19926;-44
2021/11/21 00:31:28;;;;;;;;;;;;;;;;;;2081623;28;19925;-44
2021/11/21 00:32:29;;;;;;;;;;;;;;;;;;2082419;28;19925;-44
2021/11/21 00:33:30;;;;;;;;;;;;;;;;;;2074384;28;20310;-44
2021/11/21 00:34:31;;;;;;;;;;;;;;;;;;2080375;28;20048;-44
2021/11/21 00:35:32;;;;;;;;;;;;;;;;;;2082308;28;19925;-43
2021/11/21 00:36:33;;;;;;;;;;;;;;;;;;2075402;28;19937;-42
2021/11/21 00:37:33;;;;;;;;;;;;;;;;;;2082287;28;20372;-42
2021/11/21 00:38:35;;;;;;;;;;;;;;;;;;2082261;28;19925;-42
2021/11/21 00:39:35;;;;;;;;;;;;;;;;;;2074963;28;20027;-41
2021/11/21 00:40:36;;;;;;;;;;;;;;;;;;2074281;28;19929;-42
2021/11/21 00:41:37;;;;;;;;;;;;;;;;;;2074127;28;19925;-41
2021/11/21 00:42:38;;;;;;;;;;;;;;;;;;2075215;28;19976;-44
2021/11/21 00:43:39;;;;;;;;;;;;;;;;;;2074374;28;20055;-48
2021/11/21 00:44:40;;;;;;;;;;;;;;;;;;2073556;28;19925;-46
2021/11/21 00:45:41;;;;;;;;;;;;;;;;;;2075949;28;20008;-47
2021/11/21 00:46:42;;;;;;;;;;;;;;;;;;2082190;28;19925;-49
2021/11/21 00:47:43;;;;;;;;;;;;;;;;;;2081217;28;19933;-42
2021/11/21 00:48:44;;;;;;;;;;;;;;;;;;2076453;28;19925;-42
2021/11/21 00:49:45;;;;;;;;;;;;;;;;;;2082307;28;20543;-42
2021/11/21 00:50:46;;;;;;;;;;;;;;;;;;2080360;28;19932;-42
2021/11/21 00:51:47;;;;;;;;;;;;;;;;;;2077512;28;20019;-43
2021/11/21 00:52:48;;;;;;;;;;;;;;;;;;2082399;28;20354;-44
2021/11/21 00:53:52;;;;;;;;;;;;;;;;;;2078802;28;19925;-42
2021/11/21 00:54:56;;;;;;;;;;;;;;;;;;2074860;28;19925;-43
2021/11/21 00:56:02;;;;;;;;;;;;;;;;;;2076586;28;20024;-44
2021/11/21 00:57:03;;;;;;;;;;;;;;;;;;2075915;28;20015;-44
2021/11/21 00:58:04;;;;;;;;;;;;;;;;;;2080436;28;20007;-44
2021/11/21 00:59:05;;;;;;;;;;;;;;;;;;2082322;28;19925;-45
2021/11/21 01:00:06;;;;;;;;;;;;;;;;;;2076316;28;19972;-43
2021/11/21 01:01:07;;;;;;;;;;;;;;;;;;2074468;28;19944;-43
2021/11/21 01:02:09;;;;;;;;;;;;;;;;;;2073877;28;20413;-42
2021/11/21 01:03:12;;;;;;;;;;;;;;;;;;2071467;28;19930;-42
2021/11/21 01:04:12;;;;;;;;;;;;;;;;;;2074150;28;19988;-44
2021/11/21 01:05:13;;;;;;;;;;;;;;;;;;2073997;28;20048;-47
2021/11/21 01:06:14;;;;;;;;;;;;;;;;;;2073671;28;19977;-45
2021/11/21 01:07:17;;;;;;;;;;;;;;;;;;2081165;28;20267;-46
2021/11/21 01:08:18;;;;;;;;;;;;;;;;;;2082299;28;19925;-47
2021/11/21 01:09:23;;;;;;;;;;;;;;;;;;2074992;28;19930;-45
2021/11/21 01:10:24;;;;;;;;;;;;;;;;;;2082177;28;19925;-45
2021/11/21 01:11:25;;;;;;;;;;;;;;;;;;2081372;28;19925;-43
2021/11/21 01:12:26;;;;;;;;;;;;;;;;;;2075121;28;20063;-42
2021/11/21 01:13:27;;;;;;;;;;;;;;;;;;2082152;28;20341;-42
2021/11/21 01:14:28;;;;;;;;;;;;;;;;;;2080477;28;19925;-42
2021/11/21 01:15:29;;;;;;;;;;;;;;;;;;2076477;28;19929;-43
2021/11/21 01:16:29;;;;;;;;;;;;;;;;;;2082201;28;20028;-43
2021/11/21 01:17:31;;;;;;;;;;;;;;;;;;2079376;28;20345;-42
2021/11/21 01:18:33;;;;;;;;;;;;;;;;;;2076821;28;19932;-43
2021/11/21 01:19:34;;;;;;;;;;;;;;;;;;2082064;28;20340;-43
2021/11/21 01:20:35;;;;;;;;;;;;;;;;;;2077331;28;20407;-43
2021/11/21 01:21:36;;;;;;;;;;;;;;;;;;2076922;28;19929;-42
2021/11/21 01:22:37;;;;;;;;;;;;;;;;;;2081993;28;19925;-42
2021/11/21 01:23:38;;;;;;;;;;;;;;;;;;2076845;28;19976;-42
2021/11/21 01:24:39;;;;;;;;;;;;;;;;;;2075608;28;19933;-42
2021/11/21 01:25:40;;;;;;;;;;;;;;;;;;2074125;28;20036;-42
2021/11/21 01:26:41;;;;;;;;;;;;;;;;;;2073142;28;19980;-42
2021/11/21 01:27:42;;;;;;;;;;;;;;;;;;2074865;28;20343;-43
2021/11/21 01:28:43;;;;;;;;;;;;;;;;;;2073978;28;19980;-43
2021/11/21 01:29:43;;;;;;;;;;;;;;;;;;2071669;28;20021;-43
2021/11/21 01:30:45;;;;;;;;;;;;;;;;;;2065769;28;20402;-43
2021/11/21 01:31:47;;;;;;;;;;;;;;;;;;2065692;28;19932;-42
2021/11/21 01:32:48;;;;;;;;;;;;;;;;;;2073938;28;19975;-42
2021/11/21 01:33:49;;;;;;;;;;;;;;;;;;2081910;28;20020;-44
2021/11/21 01:34:50;;;;;;;;;;;;;;;;;;2082194;28;19932;-43
2021/11/21 01:35:52;;;;;;;;;;;;;;;;;;2072890;28;19972;-42
2021/11/21 01:36:53;;;;;;;;;;;;;;;;;;2073964;28;20020;-43
2021/11/21 01:37:54;;;;;;;;;;;;;;;;;;2073353;28;20004;-43
2021/11/21 01:38:55;;;;;;;;;;;;;;;;;;2076171;28;19925;-43
2021/11/21 01:39:55;;;;;;;;;;;;;;;;;;2082071;28;20011;-43
2021/11/21 01:40:57;;;;;;;;;;;;;;;;;;2079787;28;19929;-42
2021/11/21 01:41:57;;;;;;;;;;;;;;;;;;2075244;28;20040;-43
2021/11/21 01:42:59;;;;;;;;;;;;;;;;;;2073720;28;20143;-43
2021/11/21 01:44:00;;;;;;;;;;;;;;;;;;2072336;28;20020;-43
2021/11/21 01:45:01;;;;;;;;;;;;;;;;;;2078456;28;19933;-43
2021/11/21 01:46:02;;;;;;;;;;;;;;;;;;2082049;28;20045;-43
2021/11/21 01:47:03;;;;;;;;;;;;;;;;;;2076892;28;20410;-42
2021/11/21 01:48:04;;;;;;;;;;;;;;;;;;2075395;28;19926;-43
2021/11/21 01:49:05;;;;;;;;;;;;;;;;;;2073944;28;20008;-44
2021/11/21 01:50:06;;;;;;;;;;;;;;;;;;2072677;28;20289;-42
2021/11/21 01:51:07;;;;;;;;;;;;;;;;;;2074008;28;19926;-43
2021/11/21 01:52:08;;;;;;;;;;;;;;;;;;2073030;28;20401;-44
2021/11/21 01:53:09;;;;;;;;;;;;;;;;;;2073290;28;19926;-43
2021/11/21 01:54:10;;;;;;;;;;;;;;;;;;2074633;28;19925;-44
2021/11/21 01:55:11;;;;;;;;;;;;;;;;;;2073801;28;19925;-42
2021/11/21 01:56:12;;;;;;;;;;;;;;;;;;2073853;28;19926;-43
2021/11/21 01:57:13;;;;;;;;;;;;;;;;;;2074168;28;19926;-42
2021/11/21 01:58:14;;;;;;;;;;;;;;;;;;2073834;28;20008;-44
2021/11/21 01:59:15;;;;;;;;;;;;;;;;;;2072511;28;20354;-43
2021/11/21 02:00:16;;;;;;;;;;;;;;;;;;2081659;28;19957;-44
2021/11/21 02:01:17;;;;;;;;;;;;;;;;;;2081777;28;20028;-43
2021/11/21 02:02:18;;;;;;;;;;;;;;;;;;2076343;28;19944;-43
2021/11/21 02:03:19;;;;;;;;;;;;;;;;;;2072019;28;20023;-43
2021/11/21 02:04:20;;;;;;;;;;;;;;;;;;2073701;28;20107;-42
2021/11/21 02:05:21;;;;;;;;;;;;;;;;;;2072434;28;20044;-43
2021/11/21 02:06:22;;;;;;;;;;;;;;;;;;2073739;28;20313;-42
2021/11/21 02:07:23;;;;;;;;;;;;;;;;;;2072902;28;20028;-42
2021/11/21 02:08:24;;;;;;;;;;;;;;;;;;2077077;28;20298;-42
2021/11/21 02:09:24;;;;;;;;;;;;;;;;;;2081790;28;20028;-43
2021/11/21 02:10:25;;;;;;;;;;;;;;;;;;2078519;28;19979;-43
2021/11/21 02:11:26;;;;;;;;;;;;;;;;;;2075811;28;20095;-43
2021/11/21 02:12:27;;;;;;;;;;;;;;;;;;2073530;28;19926;-43
2021/11/21 02:13:28;;;;;;;;;;;;;;;;;;2071982;28;19932;-43
2021/11/21 02:14:29;;;;;;;;;;;;;;;;;;2075847;28;20421;-44
2021/11/21 02:15:30;;;;;;;;;;;;;;;;;;2073633;28;20023;-43
2021/11/21 02:16:31;;;;;;;;;;;;;;;;;;2072490;28;19990;-43
2021/11/21 02:17:31;;;;;;;;;;;;;;;;;;2079173;28;19948;-46
2021/11/21 02:18:32;;;;;;;;;;;;;;;;;;2081320;28;19925;-46
2021/11/21 02:19:33;;;;;;;;;;;;;;;;;;2076350;28;20012;-47
2021/11/21 02:20:34;;;;;;;;;;;;;;;;;;2074866;28;20375;-46
2021/11/21 02:21:35;;;;;;;;;;;;;;;;;;2073642;28;20008;-47
2021/11/21 02:22:36;;;;;;;;;;;;;;;;;;2072396;28;20371;-47
2021/11/21 02:23:37;;;;;;;;;;;;;;;;;;2079466;28;20024;-45
2021/11/21 02:24:38;;;;;;;;;;;;;;;;;;2081918;28;19925;-46
2021/11/21 02:25:39;;;;;;;;;;;;;;;;;;2075432;28;20036;-46
2021/11/21 02:26:40;;;;;;;;;;;;;;;;;;2081142;28;19925;-46
2021/11/21 02:27:41;;;;;;;;;;;;;;;;;;2081483;28;20334;-45
2021/11/21 02:28:42;;;;;;;;;;;;;;;;;;2074754;28;19932;-45
2021/11/21 02:29:43;;;;;;;;;;;;;;;;;;2081490;28;19925;-46
2021/11/21 02:30:44;;;;;;;;;;;;;;;;;;2081614;28;19926;-46
2021/11/21 02:31:44;;;;;;;;;;;;;;;;;;2075835;28;19932;-45
2021/11/21 02:32:46;;;;;;;;;;;;;;;;;;2073122;28;19925;-46
2021/11/21 02:33:49;;;;;;;;;;;;;;;;;;2073334;28;20033;-46
2021/11/21 02:34:50;;;;;;;;;;;;;;;;;;2072746;28;20012;-46
2021/11/21 02:35:50;;;;;;;;;;;;;;;;;;2081672;28;20024;-45
2021/11/21 02:36:51;;;;;;;;;;;;;;;;;;2081465;28;19925;-45
2021/11/21 02:37:52;;;;;;;;;;;;;;;;;;2073752;28;19976;-47
2021/11/21 02:38:53;;;;;;;;;;;;;;;;;;2081594;28;19929;-46
2021/11/21 02:39:54;;;;;;;;;;;;;;;;;;2080502;28;19925;-46
2021/11/21 02:40:55;;;;;;;;;;;;;;;;;;2075848;28;19925;-44
2021/11/21 02:41:56;;;;;;;;;;;;;;;;;;2081572;28;19932;-43
2021/11/21 02:42:57;;;;;;;;;;;;;;;;;;2079898;28;19929;-44
2021/11/21 02:43:58;;;;;;;;;;;;;;;;;;2076247;28;20072;-43
2021/11/21 02:44:59;;;;;;;;;;;;;;;;;;2081442;28;19971;-43
2021/11/21 02:46:00;;;;;;;;;;;;;;;;;;2078430;28;19925;-43
2021/11/21 02:47:01;;;;;;;;;;;;;;;;;;2077650;28;20382;-43
2021/11/21 02:48:02;;;;;;;;;;;;;;;;;;2081544;28;19968;-43
2021/11/21 02:49:03;;;;;;;;;;;;;;;;;;2071770;28;19929;-43
2021/11/21 02:50:04;;;;;;;;;;;;;;;;;;2078814;28;19925;-43
2021/11/21 02:51:05;;;;;;;;;;;;;;;;;;2081490;28;20453;-44
2021/11/21 02:52:06;;;;;;;;;;;;;;;;;;2077104;28;19925;-43
2021/11/21 02:53:07;;;;;;;;;;;;;;;;;;2075180;28;20417;-43
2021/11/21 02:54:08;;;;;;;;;;;;;;;;;;2073174;28;20293;-43
2021/11/21 02:55:09;;;;;;;;;;;;;;;;;;2072260;28;19926;-43
2021/11/21 02:56:09;;;;;;;;;;;;;;;;;;2079337;28;20342;-44
2021/11/21 02:57:10;;;;;;;;;;;;;;;;;;2081342;28;19933;-44
2021/11/21 02:58:11;;;;;;;;;;;;;;;;;;2076082;28;19961;-43
2021/11/21 02:59:12;;;;;;;;;;;;;;;;;;2079040;28;20052;-44
2021/11/21 03:00:13;;;;;;;;;;;;;;;;;;2081422;28;19933;-43
2021/11/21 03:01:14;;;;;;;;;;;;;;;;;;2075297;28;24186;-43
2021/11/21 03:02:18;;;;;;;;;;;;;;;;;;2073355;28;19933;-42
2021/11/21 03:03:19;;;;;;;;;;;;;;;;;;2071486;28;19926;-43
2021/11/21 03:04:20;;;;;;;;;;;;;;;;;;2073836;28;20028;-43
2021/11/21 03:05:21;;;;;;;;;;;;;;;;;;2081417;28;19932;-43
2021/11/21 03:06:22;;;;;;;;;;;;;;;;;;2080277;28;20370;-42
2021/11/21 03:07:23;;;;;;;;;;;;;;;;;;2075683;28;20280;-42
2021/11/21 03:08:24;;;;;;;;;;;;;;;;;;2081426;28;20445;-43
2021/11/21 03:09:25;;;;;;;;;;;;;;;;;;2079141;28;19932;-42
2021/11/21 03:10:27;;;;;;;;;;;;;;;;;;2075698;28;20003;-43
2021/11/21 03:11:28;;;;;;;;;;;;;;;;;;2081411;28;20449;-42
2021/11/21 03:12:29;;;;;;;;;;;;;;;;;;2077473;28;19980;-43
2021/11/21 03:13:30;;;;;;;;;;;;;;;;;;2077362;28;20313;-43
2021/11/21 03:14:32;;;;;;;;;;;;;;;;;;2081394;28;19925;-43
2021/11/21 03:15:33;;;;;;;;;;;;;;;;;;2076902;28;19925;-42
2021/11/21 03:16:34;;;;;;;;;;;;;;;;;;2075323;28;19930;-43
2021/11/21 03:17:35;;;;;;;;;;;;;;;;;;2073139;28;19941;-43
2021/11/21 03:18:36;;;;;;;;;;;;;;;;;;2072203;28;19929;-43
2021/11/21 03:19:37;;;;;;;;;;;;;;;;;;2079208;28;20011;-42
2021/11/21 03:20:38;;;;;;;;;;;;;;;;;;2081355;28;19936;-42
2021/11/21 03:21:39;;;;;;;;;;;;;;;;;;2076629;28;20502;-43
2021/11/21 03:22:40;;;;;;;;;;;;;;;;;;2073845;28;19995;-43
2021/11/21 03:23:40;;;;;;;;;;;;;;;;;;2073208;28;20023;-42
2021/11/21 03:24:42;;;;;;;;;;;;;;;;;;2072587;28;19930;-45
2021/11/21 03:25:43;;;;;;;;;;;;;;;;;;2073606;28;19926;-43
2021/11/21 03:26:44;;;;;;;;;;;;;;;;;;2073301;28;20067;-44
2021/11/21 03:27:45;;;;;;;;;;;;;;;;;;2071969;28;20011;-43
2021/11/21 03:28:45;;;;;;;;;;;;;;;;;;2081096;28;20008;-42
2021/11/21 03:29:47;;;;;;;;;;;;;;;;;;2081433;28;19929;-49
2021/11/21 03:30:48;;;;;;;;;;;;;;;;;;2075177;28;19968;-45
2021/11/21 03:31:49;;;;;;;;;;;;;;;;;;2082605;28;19947;-45
2021/11/21 03:32:50;;;;;;;;;;;;;;;;;;2082641;28;20422;-45
2021/11/21 03:33:51;;;;;;;;;;;;;;;;;;2074621;28;19932;-45
2021/11/21 03:34:52;;;;;;;;;;;;;;;;;;2082684;28;20023;-45
2021/11/21 03:35:53;;;;;;;;;;;;;;;;;;2082582;28;19925;-45
2021/11/21 03:36:54;;;;;;;;;;;;;;;;;;2074571;28;20364;-46
2021/11/21 03:37:55;;;;;;;;;;;;;;;;;;2074541;28;19925;-46
2021/11/21 03:38:55;;;;;;;;;;;;;;;;;;2074169;28;20004;-48
2021/11/21 03:39:56;;;;;;;;;;;;;;;;;;2076334;28;19933;-46
2021/11/21 03:40:57;;;;;;;;;;;;;;;;;;2082745;28;20015;-46
2021/11/21 03:41:58;;;;;;;;;;;;;;;;;;2081312;28;19929;-45
2021/11/21 03:43:00;;;;;;;;;;;;;;;;;;2075741;28;19925;-45
2021/11/21 03:44:01;;;;;;;;;;;;;;;;;;2074541;28;19972;-47
2021/11/21 03:45:02;;;;;;;;;;;;;;;;;;2077319;28;20370;-49
2021/11/21 03:46:03;;;;;;;;;;;;;;;;;;2078250;28;20008;-49
2021/11/21 03:47:04;;;;;;;;;;;;;;;;;;2082555;28;19925;-44
2021/11/21 03:48:05;;;;;;;;;;;;;;;;;;2078969;28;19925;-45
2021/11/21 03:49:05;;;;;;;;;;;;;;;;;;2079499;28;20000;-47
2021/11/21 03:50:07;;;;;;;;;;;;;;;;;;2082751;28;19939;-47
2021/11/21 03:51:08;;;;;;;;;;;;;;;;;;2078171;28;20048;-45
2021/11/21 03:52:09;;;;;;;;;;;;;;;;;;2080017;28;19977;-49
2021/11/21 03:53:10;;;;;;;;;;;;;;;;;;2082561;28;20067;-45
2021/11/21 03:54:11;;;;;;;;;;;;;;;;;;2078040;28;19926;-46
2021/11/21 03:55:11;;;;;;;;;;;;;;;;;;2074261;28;20021;-45
2021/11/21 03:56:12;;;;;;;;;;;;;;;;;;2074931;28;19947;-43
2021/11/21 03:57:13;;;;;;;;;;;;;;;;;;2072388;28;20016;-45
2021/11/21 03:58:14;;;;;;;;;;;;;;;;;;2080747;28;19936;-45
2021/11/21 03:59:15;;;;;;;;;;;;;;;;;;2082698;28;20003;-46
2021/11/21 04:00:16;;;;;;;;;;;;;;;;;;2076554;28;20272;-45
2021/11/21 04:01:17;;;;;;;;;;;;;;;;;;2081706;28;20012;-46
2021/11/21 04:02:18;;;;;;;;;;;;;;;;;;2082541;28;19925;-45
2021/11/21 04:03:19;;;;;;;;;;;;;;;;;;2076399;28;20083;-46
2021/11/21 04:04:21;;;;;;;;;;;;;;;;;;2074233;28;19936;-45
2021/11/21 04:05:21;;;;;;;;;;;;;;;;;;2074487;28;19972;-46
2021/11/21 04:06:22;;;;;;;;;;;;;;;;;;2073716;28;20584;-46
2021/11/21 04:07:23;;;;;;;;;;;;;;;;;;2082210;28;20362;-46
2021/11/21 04:08:24;;;;;;;;;;;;;;;;;;2082505;28;19932;-45
2021/11/21 04:09:25;;;;;;;;;;;;;;;;;;2075227;28;20487;-46
2021/11/21 04:10:26;;;;;;;;;;;;;;;;;;2082472;28;19925;-46
2021/11/21 04:11:27;;;;;;;;;;;;;;;;;;2082547;28;19964;-45
2021/11/21 04:12:28;;;;;;;;;;;;;;;;;;2074757;28;19925;-45
2021/11/21 04:13:29;;;;;;;;;;;;;;;;;;2074353;28;19969;-46
2021/11/21 04:14:30;;;;;;;;;;;;;;;;;;2074368;28;20287;-48
2021/11/21 04:15:31;;;;;;;;;;;;;;;;;;2074863;28;19925;-50
2021/11/21 04:16:32;;;;;;;;;;;;;;;;;;2082586;28;19931;-46
2021/11/21 04:17:33;;;;;;;;;;;;;;;;;;2081501;28;19956;-46
2021/11/21 04:18:34;;;;;;;;;;;;;;;;;;2075413;28;20028;-45
2021/11/21 04:19:35;;;;;;;;;;;;;;;;;;2074265;28;19936;-45
2021/11/21 04:20:36;;;;;;;;;;;;;;;;;;2073823;28;20367;-46
2021/11/21 04:21:37;;;;;;;;;;;;;;;;;;2075831;28;19938;-46
2021/11/21 04:22:38;;;;;;;;;;;;;;;;;;2074238;28;19926;-48
2021/11/21 04:23:39;;;;;;;;;;;;;;;;;;2072975;28;20391;-46
2021/11/21 04:24:40;;;;;;;;;;;;;;;;;;2078772;28;19980;-48
2021/11/21 04:25:41;;;;;;;;;;;;;;;;;;2082390;28;20105;-47
2021/11/21 04:26:43;;;;;;;;;;;;;;;;;;2077985;28;20000;-46
2021/11/21 04:27:44;;;;;;;;;;;;;;;;;;2079655;28;20032;-46
2021/11/21 04:28:45;;;;;;;;;;;;;;;;;;2082495;28;19956;-46
2021/11/21 04:29:46;;;;;;;;;;;;;;;;;;2076898;28;20437;-48
2021/11/21 04:30:47;;;;;;;;;;;;;;;;;;2074029;28;19984;-46
2021/11/21 04:31:50;;;;;;;;;;;;;;;;;;2074163;28;19925;-47
2021/11/21 04:32:51;;;;;;;;;;;;;;;;;;2074182;28;19926;-46
2021/11/21 04:33:52;;;;;;;;;;;;;;;;;;2074885;28;20290;-45
2021/11/21 04:34:53;;;;;;;;;;;;;;;;;;2074305;28;20016;-46
2021/11/21 04:35:54;;;;;;;;;;;;;;;;;;2074612;28;19926;-46
2021/11/21 04:36:57;;;;;;;;;;;;;;;;;;2074421;28;20148;-45
2021/11/21 04:37:58;;;;;;;;;;;;;;;;;;2074399;28;19930;-46
2021/11/21 04:38:58;;;;;;;;;;;;;;;;;;2072343;28;20016;-43
2021/11/21 04:39:59;;;;;;;;;;;;;;;;;;2082255;28;19979;-43
2021/11/21 04:41:00;;;;;;;;;;;;;;;;;;2081968;28;19925;-43
2021/11/21 04:42:01;;;;;;;;;;;;;;;;;;2073403;28;19956;-44
2021/11/21 04:43:02;;;;;;;;;;;;;;;;;;2081992;28;19925;-43
2021/11/21 04:44:03;;;;;;;;;;;;;;;;;;2082324;28;19975;-44
2021/11/21 04:45:04;;;;;;;;;;;;;;;;;;2075062;28;20371;-43
2021/11/21 04:46:05;;;;;;;;;;;;;;;;;;2082300;28;20063;-44
2021/11/21 04:47:06;;;;;;;;;;;;;;;;;;2082158;28;19975;-44
2021/11/21 04:48:07;;;;;;;;;;;;;;;;;;2074982;28;20020;-43
2021/11/21 04:49:08;;;;;;;;;;;;;;;;;;2074222;28;19972;-44
2021/11/21 04:50:09;;;;;;;;;;;;;;;;;;2073470;28;19947;-44
2021/11/21 04:51:11;;;;;;;;;;;;;;;;;;2073914;28;19975;-43
2021/11/21 04:52:12;;;;;;;;;;;;;;;;;;2074235;28;19933;-44
2021/11/21 04:53:13;;;;;;;;;;;;;;;;;;2073685;28;19933;-44
2021/11/21 04:54:15;;;;;;;;;;;;;;;;;;2076597;28;20293;-43
2021/11/21 04:55:16;;;;;;;;;;;;;;;;;;2082210;28;19960;-44
2021/11/21 04:56:17;;;;;;;;;;;;;;;;;;2078993;28;19928;-43
2021/11/21 04:57:19;;;;;;;;;;;;;;;;;;2078478;28;19933;-43
2021/11/21 04:58:20;;;;;;;;;;;;;;;;;;2082126;28;20348;-44
2021/11/21 04:59:21;;;;;;;;;;;;;;;;;;2077875;28;19944;-43
2021/11/21 05:00:22;;;;;;;;;;;;;;;;;;2076580;28;20022;-46
2021/11/21 05:01:22;;;;;;;;;;;;;;;;;;2073992;28;20329;-46
2021/11/21 05:02:24;;;;;;;;;;;;;;;;;;2073052;28;19933;-47
2021/11/21 05:03:25;;;;;;;;;;;;;;;;;;2075098;28;20290;-47
2021/11/21 05:04:26;;;;;;;;;;;;;;;;;;2082274;28;19960;-46
2021/11/21 05:05:26;;;;;;;;;;;;;;;;;;2077081;28;20965;-47
2021/11/21 05:06:27;;;;;;;;;;;;;;;;;;2080374;28;19933;-44
2021/11/21 05:07:28;;;;;;;;;;;;;;;;;;2082095;28;20445;-43
2021/11/21 05:08:29;;;;;;;;;;;;;;;;;;2076361;28;19930;-44
2021/11/21 05:09:30;;;;;;;;;;;;;;;;;;2081025;28;20028;-44
2021/11/21 05:10:31;;;;;;;;;;;;;;;;;;2082204;28;20409;-43
2021/11/21 05:11:32;;;;;;;;;;;;;;;;;;2077398;28;19925;-43
2021/11/21 05:12:33;;;;;;;;;;;;;;;;;;2073828;28;19961;-43
2021/11/21 05:13:34;;;;;;;;;;;;;;;;;;2074310;28;20024;-43
2021/11/21 05:14:35;;;;;;;;;;;;;;;;;;2071954;28;20374;-44
2021/11/21 05:15:36;;;;;;;;;;;;;;;;;;2081984;28;19964;-43
2021/11/21 05:16:37;;;;;;;;;;;;;;;;;;2082041;28;20436;-44
2021/11/21 05:17:38;;;;;;;;;;;;;;;;;;2075181;28;19933;-44
2021/11/21 05:18:39;;;;;;;;;;;;;;;;;;2081953;28;19925;-44
2021/11/21 05:19:39;;;;;;;;;;;;;;;;;;2082066;28;20568;-43
2021/11/21 05:20:41;;;;;;;;;;;;;;;;;;2073834;28;19926;-45
2021/11/21 05:21:41;;;;;;;;;;;;;;;;;;2082120;28;20010;-44
2021/11/21 05:22:42;;;;;;;;;;;;;;;;;;2082078;28;19979;-43
2021/11/21 05:23:43;;;;;;;;;;;;;;;;;;2074929;28;20016;-45
2021/11/21 05:24:44;;;;;;;;;;;;;;;;;;2082360;28;20019;-43
2021/11/21 05:25:45;;;;;;;;;;;;;;;;;;2081331;28;20345;-43
2021/11/21 05:26:46;;;;;;;;;;;;;;;;;;2075236;28;19932;-44
2021/11/21 05:27:47;;;;;;;;;;;;;;;;;;2073834;28;19956;-43
2021/11/21 05:28:48;;;;;;;;;;;;;;;;;;2073579;28;20004;-46
2021/11/21 05:29:49;;;;;;;;;;;;;;;;;;2075171;28;19926;-43
2021/11/21 05:30:51;;;;;;;;;;;;;;;;;;2073961;28;20036;-43
2021/11/21 05:31:51;;;;;;;;;;;;;;;;;;2072837;28;20008;-47
2021/11/21 05:32:52;;;;;;;;;;;;;;;;;;2075856;28;19952;-45
2021/11/21 05:33:53;;;;;;;;;;;;;;;;;;2073753;28;20379;-45
2021/11/21 05:34:55;;;;;;;;;;;;;;;;;;2072230;28;20278;-48
2021/11/21 05:35:55;;;;;;;;;;;;;;;;;;2077280;28;20458;-46
2021/11/21 05:36:56;;;;;;;;;;;;;;;;;;2081167;28;19925;-48
2021/11/21 05:37:57;;;;;;;;;;;;;;;;;;2072767;28;19953;-44
2021/11/21 05:38:58;;;;;;;;;;;;;;;;;;2079280;28;19925;-44
2021/11/21 05:39:59;;;;;;;;;;;;;;;;;;2081894;28;20016;-45
2021/11/21 05:41:00;;;;;;;;;;;;;;;;;;2077492;28;19925;-45
2021/11/21 05:42:01;;;;;;;;;;;;;;;;;;2075243;28;20327;-45
2021/11/21 05:43:02;;;;;;;;;;;;;;;;;;2073931;28;19932;-44
2021/11/21 05:44:03;;;;;;;;;;;;;;;;;;2072758;28;20004;-44
2021/11/21 05:45:04;;;;;;;;;;;;;;;;;;2080258;28;19927;-44
2021/11/21 05:46:05;;;;;;;;;;;;;;;;;;2081823;28;20367;-46
2021/11/21 05:47:06;;;;;;;;;;;;;;;;;;2074507;28;20363;-45
2021/11/21 05:48:07;;;;;;;;;;;;;;;;;;2081011;28;20441;-44
2021/11/21 05:49:08;;;;;;;;;;;;;;;;;;2081973;28;19929;-45
2021/11/21 05:50:12;;;;;;;;;;;;;;;;;;2074983;28;19999;-45
2021/11/21 05:51:13;;;;;;;;;;;;;;;;;;2080828;28;19965;-45
2021/11/21 05:52:14;;;;;;;;;;;;;;;;;;2081755;28;19925;-44
2021/11/21 05:53:15;;;;;;;;;;;;;;;;;;2074610;28;20013;-44
2021/11/21 05:54:16;;;;;;;;;;;;;;;;;;2081876;28;19971;-45
2021/11/21 05:55:17;;;;;;;;;;;;;;;;;;2081809;28;19929;-44
2021/11/21 05:56:18;;;;;;;;;;;;;;;;;;2074714;28;19973;-44
2021/11/21 05:57:19;;;;;;;;;;;;;;;;;;2081887;28;20314;-44
2021/11/21 05:58:23;;;;;;;;;;;;;;;;;;2081912;28;20031;-45
2021/11/21 05:59:24;;;;;;;;;;;;;;;;;;2075465;28;20012;-44
2021/11/21 06:00:24;;;;;;;;;;;;;;;;;;2081842;28;20015;-45
2021/11/21 06:01:25;;;;;;;;;;;;;;;;;;2080403;28;19925;-44
2021/11/21 06:02:29;;;;;;;;;;;;;;;;;;2077036;28;19933;-48
2021/11/21 06:03:31;;;;;;;;;;;;;;;;;;2068214;28;20311;-48
2021/11/21 06:04:31;;;;;;;;;;;;;;;;;;2066380;28;20017;-47
2021/11/21 06:05:32;;;;;;;;;;;;;;;;;;2075908;28;20394;-46
2021/11/21 06:06:33;;;;;;;;;;;;;;;;;;2073508;28;20020;-47
2021/11/21 06:07:34;;;;;;;;;;;;;;;;;;2071798;28;19975;-45
2021/11/21 06:08:35;;;;;;;;;;;;;;;;;;2076251;28;19972;-47
2021/11/21 06:09:36;;;;;;;;;;;;;;;;;;2073519;28;19932;-48
2021/11/21 06:10:37;;;;;;;;;;;;;;;;;;2071628;28;19930;-48
2021/11/21 06:11:38;;;;;;;;;;;;;;;;;;2075267;28;20284;-47
2021/11/21 06:12:38;;;;;;;;;;;;;;;;;;2073519;28;20016;-46
2021/11/21 06:13:39;;;;;;;;;;;;;;;;;;2072534;28;20387;-47
2021/11/21 06:14:40;;;;;;;;;;;;;;;;;;2079540;28;20437;-45
2021/11/21 06:15:41;;;;;;;;;;;;;;;;;;2081619;28;19956;-46
2021/11/21 06:16:42;;;;;;;;;;;;;;;;;;2076315;28;20008;-48
2021/11/21 06:17:44;;;;;;;;;;;;;;;;;;2079629;28;19932;-47
2021/11/21 06:18:45;;;;;;;;;;;;;;;;;;2081770;28;19925;-49
2021/11/21 06:19:47;;;;;;;;;;;;;;;;;;2075771;28;20406;-49
2021/11/21 06:20:47;;;;;;;;;;;;;;;;;;2073469;28;20395;-45
2021/11/21 06:21:48;;;;;;;;;;;;;;;;;;2073500;28;19933;-48
2021/11/21 06:22:49;;;;;;;;;;;;;;;;;;2074511;28;19929;-49
2021/11/21 06:23:50;;;;;;;;;;;;;;;;;;2073338;28;19926;-46
2021/11/21 06:24:51;;;;;;;;;;;;;;;;;;2073819;28;19948;-46
2021/11/21 06:25:52;;;;;;;;;;;;;;;;;;2073355;28;19925;-46
2021/11/21 06:26:53;;;;;;;;;;;;;;;;;;2081689;28;20025;-48
2021/11/21 06:27:54;;;;;;;;;;;;;;;;;;2081622;28;19925;-46
2021/11/21 06:28:56;;;;;;;;;;;;;;;;;;2074441;28;20331;-45
2021/11/21 06:29:57;;;;;;;;;;;;;;;;;;2081753;28;20059;-49
2021/11/21 06:30:58;;;;;;;;;;;;;;;;;;2081610;28;20461;-46
2021/11/21 06:32:01;;;;;;;;;;;;;;;;;;2070714;28;20009;-45
2021/11/21 06:33:02;;;;;;;;;;;;;;;;;;2073499;28;19925;-43
2021/11/21 06:34:03;;;;;;;;;;;;;;;;;;2071655;28;20012;-43
2021/11/21 06:35:04;;;;;;;;;;;;;;;;;;2075546;28;19925;-46
2021/11/21 06:36:05;;;;;;;;;;;;;;;;;;2073504;28;20466;-45
2021/11/21 06:37:06;;;;;;;;;;;;;;;;;;2072474;28;19925;-44
2021/11/21 06:38:07;;;;;;;;;;;;;;;;;;2079424;28;19987;-44
2021/11/21 06:39:08;;;;;;;;;;;;;;;;;;2081735;28;19983;-44
2021/11/21 06:40:09;;;;;;;;;;;;;;;;;;2076495;28;20005;-47
2021/11/21 06:41:10;;;;;;;;;;;;;;;;;;2073559;28;20310;-45
2021/11/21 06:42:10;;;;;;;;;;;;;;;;;;2073374;28;20019;-47
2021/11/21 06:43:11;;;;;;;;;;;;;;;;;;2074323;28;19979;-46
2021/11/21 06:44:12;;;;;;;;;;;;;;;;;;2073469;28;19959;-45
2021/11/21 06:45:13;;;;;;;;;;;;;;;;;;2073420;28;19926;-45
2021/11/21 06:46:15;;;;;;;;;;;;;;;;;;2074361;28;19993;-44
2021/11/21 06:47:18;;;;;;;;;;;;;;;;;;2081603;28;19925;-45
2021/11/21 06:48:20;;;;;;;;;;;;;;;;;;2080805;28;19931;-43
2021/11/21 06:49:22;;;;;;;;;;;;;;;;;;2073749;28;20104;-44
2021/11/21 06:50:23;;;;;;;;;;;;;;;;;;2073471;28;20016;-43
2021/11/21 06:51:24;;;;;;;;;;;;;;;;;;2072688;28;20378;-44
2021/11/21 06:52:25;;;;;;;;;;;;;;;;;;2076793;28;19976;-44
2021/11/21 06:53:26;;;;;;;;;;;;;;;;;;2081482;28;19961;-43
2021/11/21 06:54:27;;;;;;;;;;;;;;;;;;2077911;28;20016;-45
2021/11/21 06:55:28;;;;;;;;;;;;;;;;;;2075462;28;19936;-44
2021/11/21 06:56:29;;;;;;;;;;;;;;;;;;2073435;28;20012;-44
2021/11/21 06:57:31;;;;;;;;;;;;;;;;;;2071671;28;19936;-43